Thunder radar more information blitzortung!


avis per Pluja more information rain snow radar


Visita la nostra xarxa de llocs de meteo:

Template documentation
and downloads

And another site



Rain From: 18-11-2018 11:00 Until: 20:59 warning for: Rain Level: Yellow info button

Pagina Historial Weather Underground text

Diari Resum January 4, 2018 Unitats:  Mètric    Imperial   Tant
« Previous Dia
SegĂźent Dia »
Diari Setmana Mensual Anual Personalitzada
  Maxima: Minima: Media:
Temperatura: -17.8 °C 10.6 °C 17.2 °C
Punt de rosada: -17.8 °C 2.2 °C 7 °C
Humitat: Humidity % 43 % 51 %
Wind Speed: 0 km/h 0 km/h 10.3 km/h
RĂ fegues de vent: 0 km/h - -
Vent:- - WSW
Pression baro: 0 hPa 1012.8 hPa -
Precipitacions: 0 mm    
Historical Graphs
 
 
Dades de taula per January 4, 2018
Temps Temperatura Punt de rosada Pression baro Vent Wind Speed RĂ fegues de vent Humitat Rainfall Rate (Hourly)
-17.8 °C -17.8 °C 0 hPa Calm     Humidity % 0 mm
00:00 15.7 °C 9.1 °C 1018.8 hPa West 11.3 km/h 12.9 km/h 65 % 0 mm
00:01 15.7 °C 8.7 °C 1021.9 hPa WSW 11.1 km/h 11.1 km/h 63 % 0 mm
00:04 15.7 °C 8.7 °C 1021.9 hPa WSW 9 km/h 9 km/h 63 % 0 mm
00:10 15.6 °C 9.1 °C 1019.9 hPa West 9.7 km/h 12.9 km/h 65 % 0 mm
00:20 15.6 °C 9.1 °C 1019.9 hPa West 4.8 km/h 9.7 km/h 65 % 0 mm
00:30 15.6 °C 9.1 °C 1019.9 hPa West 4.8 km/h 9.7 km/h 65 % 0 mm
00:40 15.5 °C 8.9 °C 1019.9 hPa West 8 km/h 9.7 km/h 65 % 0 mm
01:00 15.3 °C 8.8 °C 1019.9 hPa West 4.8 km/h 6.4 km/h 65 % 0 mm
01:20 15.2 °C 8.7 °C 1018.8 hPa WNW 9.7 km/h 11.3 km/h 65 % 0 mm
01:30 15.2 °C 8.9 °C 1018.8 hPa WSW 3.2 km/h 9.7 km/h 66 % 0 mm
01:40 15.2 °C 8.9 °C 1019.9 hPa West 4.8 km/h 9.7 km/h 66 % 0 mm
01:50 15.1 °C 8.8 °C 1018.8 hPa WNW 3.2 km/h 6.4 km/h 66 % 0 mm
02:00 15 °C 8.4 °C 1018.8 hPa WNW 3.2 km/h 8 km/h 65 % 0 mm
02:10 14.8 °C 8.5 °C 1019.9 hPa West 1.6 km/h 4.8 km/h 66 % 0 mm
02:20 14.7 °C 8.4 °C 1019.9 hPa WNW 1.6 km/h 6.4 km/h 66 % 0 mm
02:30 14.6 °C 8.3 °C 1019.9 hPa WNW 1.6 km/h 4.8 km/h 66 % 0 mm
02:40 14.6 °C 8.3 °C 1019.9 hPa West 3.2 km/h 6.4 km/h 66 % 0 mm
02:50 14.6 °C 8.3 °C 1019.9 hPa West 4.8 km/h 4.8 km/h 66 % 0 mm
03:10 15 °C 8.7 °C 1020.9 hPa WSW 3.2 km/h 4.8 km/h 66 % 0 mm
03:30 15.7 °C 9.1 °C 1020.9 hPa West 3.2 km/h 6.4 km/h 65 % 0 mm
03:50 16 °C 9.2 °C 1020.9 hPa SW 8 km/h 9.7 km/h 64 % 0 mm
04:00 16.2 °C 9.4 °C 1020.9 hPa SW 3.2 km/h 9.7 km/h 64 % 0 mm
10:06 16.7 °C 9.6 °C 1020.9 hPa ENE 13 km/h 13 km/h 63 % 0 mm
10:07 16.7 °C 9.6 °C 1020.9 hPa NW 13 km/h 13 km/h 63 % 0 mm
10:08 16.7 °C 9.6 °C 1020.9 hPa NNW 13 km/h 13 km/h 63 % 0 mm
10:09 16.7 °C 9.6 °C 1020.9 hPa NE 5.6 km/h 5.6 km/h 63 % 0 mm
10:14 16.8 °C 9.7 °C 1020.9 hPa NNE 4.2 km/h 4.2 km/h 63 % 0 mm
10:15 16.6 °C 9.3 °C 1020.9 hPa NE 3.7 km/h 3.7 km/h 62 % 0 mm
10:20 16.3 °C 9 °C 1020.9 hPa NNE 7.4 km/h 7.4 km/h 62 % 0 mm
10:23 16.3 °C 9 °C 1020.9 hPa NE 5.6 km/h 5.6 km/h 62 % 0 mm
10:28 16.6 °C 9.3 °C 1020.9 hPa NE 5.6 km/h 5.6 km/h 62 % 0 mm
10:30 16.7 °C 9.4 °C 1020.9 hPa West 10.3 km/h 10.3 km/h 62 % 0 mm
10:35 17.1 °C 9.5 °C 1020.9 hPa SSW 9.3 km/h 9.3 km/h 61 % 0 mm
10:37 17.2 °C 9.6 °C 1020.9 hPa WNW 7.4 km/h 7.4 km/h 61 % 0 mm
10:42 17.4 °C 9.6 °C 1020.9 hPa WSW 13 km/h 13 km/h 60 % 0 mm
10:47 17.6 °C 9.7 °C 1020.9 hPa WSW 7.4 km/h 7.4 km/h 60 % 0 mm
10:50 17.7 °C 9.6 °C 1020.9 hPa WSW 13 km/h 13 km/h 59 % 0 mm
10:51 17.7 °C 9.6 °C 1020.9 hPa NW 14.8 km/h 14.8 km/h 59 % 0 mm
10:55 17.7 °C 9.3 °C 1021.9 hPa WSW 20.4 km/h 20.4 km/h 58 % 0 mm
10:57 17.8 °C 9.4 °C 1021.9 hPa WNW 13 km/h 13 km/h 58 % 0 mm
11:02 18 °C 9.6 °C 1021.9 hPa West 22.2 km/h 22.2 km/h 58 % 0 mm
11:05 18 °C 9.3 °C 1021.9 hPa West 9.7 km/h 22.5 km/h 57 % 0 mm
11:10 18.1 °C 9.2 °C 1021.9 hPa WSW 22.2 km/h 22.2 km/h 56 % 0 mm
11:11 18.1 °C 9.2 °C 1021.9 hPa WSW 22.2 km/h 22.2 km/h 56 % 0 mm
11:16 18.2 °C 9 °C 1021.9 hPa WSW 9.3 km/h 9.3 km/h 55 % 0 mm
11:20 18.2 °C 9 °C 1021.9 hPa WSW 13 km/h 13 km/h 55 % 0 mm
11:25 18.3 °C 8.8 °C 1019.9 hPa West 13 km/h 13 km/h 54 % 0 mm
11:30 18.5 °C 9 °C 1019.9 hPa West 7.4 km/h 7.4 km/h 54 % 0 mm
11:35 18.6 °C 9.1 °C 1019.9 hPa NNE 6.1 km/h 6.1 km/h 54 % 0 mm
11:40 18.9 °C 9.4 °C 1019.9 hPa ENE 7.9 km/h 7.9 km/h 54 % 0 mm
11:41 18.9 °C 9.4 °C 1019.9 hPa WSW 7.4 km/h 7.4 km/h 54 % 0 mm
11:44 19 °C 9.2 °C 1019.9 hPa SSW 5.6 km/h 5.6 km/h 53 % 0 mm
11:46 19 °C 9.2 °C 1019.9 hPa NW 16.4 km/h 16.4 km/h 53 % 0 mm
11:51 19 °C 9.2 °C 1019.9 hPa North 9.3 km/h 9.3 km/h 53 % 0 mm
11:54 19 °C 8.9 °C 1019.9 hPa SW 16.7 km/h 16.7 km/h 52 % 0 mm
11:56 19 °C 8.9 °C 1019.9 hPa WNW 11.9 km/h 11.9 km/h 52 % 0 mm
12:01 19 °C 8.6 °C 1019.9 hPa WSW 16.7 km/h 16.7 km/h 51 % 0 mm
12:06 19.1 °C 8.7 °C 1019.9 hPa WNW 16.7 km/h 16.7 km/h 51 % 0 mm
12:07 19.1 °C 8.7 °C 1019.9 hPa SW 16.7 km/h 16.7 km/h 51 % 0 mm
12:08 19.1 °C 8.7 °C 1019.9 hPa SW 14.8 km/h 14.8 km/h 51 % 0 mm
12:13 19 °C 8.6 °C 1019.9 hPa West 24.1 km/h 24.1 km/h 51 % 0 mm
12:15 18.9 °C 8.6 °C 1019.9 hPa West 27.8 km/h 27.8 km/h 51 % 0 mm
12:16 18.9 °C 8.6 °C 1019.9 hPa West 35.2 km/h 35.2 km/h 51 % 0 mm
12:20 19 °C 8.6 °C 1019.9 hPa West 16.7 km/h 16.7 km/h 51 % 0 mm
12:25 19.1 °C 8.4 °C 1018.8 hPa WSW 24.5 km/h 24.5 km/h 50 % 0 mm
12:26 19.1 °C 8.4 °C 1018.8 hPa West 14.8 km/h 16.1 km/h 50 % 0 mm
12:28 19.1 °C 8.4 °C 1018.8 hPa West 11.9 km/h 11.9 km/h 50 % 0 mm
12:31 19.2 °C 8.5 °C 1018.8 hPa WSW 24.1 km/h 24.1 km/h 50 % 0 mm
12:36 19.2 °C 8.5 °C 1018.8 hPa WSW 20.4 km/h 20.4 km/h 50 % 0 mm
12:41 19.2 °C 8.5 °C 1018.8 hPa WNW 18.5 km/h 18.5 km/h 50 % 0 mm
12:42 19.2 °C 8.5 °C 1018.8 hPa WSW 9.3 km/h 9.3 km/h 50 % 0 mm
12:43 19.4 °C 8.7 °C 1018.8 hPa SW 13 km/h 13 km/h 50 % 0 mm
12:47 19.5 °C 8.8 °C 1018.8 hPa WSW 19.8 km/h 19.8 km/h 50 % 0 mm
12:50 19.5 °C 8.8 °C 1018.8 hPa West 20.4 km/h 20.4 km/h 50 % 0 mm
12:53 19.6 °C 8.9 °C 1017.8 hPa WSW 16.7 km/h 16.7 km/h 50 % 0 mm
12:58 19.9 °C 9.2 °C 1017.8 hPa West 12.6 km/h 12.6 km/h 50 % 0 mm
13:03 19.9 °C 8.9 °C 1017.8 hPa WSW 20.4 km/h 20.4 km/h 49 % 0 mm
13:08 19.8 °C 8.8 °C 1017.8 hPa West 29.6 km/h 29.6 km/h 49 % 0 mm
13:13 19.9 °C 8.9 °C 1017.8 hPa WSW 20.4 km/h 20.4 km/h 49 % 0 mm
13:17 19.8 °C 8.8 °C 1017.8 hPa West 31.5 km/h 31.5 km/h 49 % 0 mm
13:22 19.9 °C 8.9 °C 1017.8 hPa West 18.5 km/h 18.5 km/h 49 % 0 mm
13:23 19.9 °C 8.9 °C 1017.8 hPa West 18.5 km/h 18.5 km/h 49 % 0 mm
13:28 19.9 °C 8.9 °C 1017.8 hPa West 16.7 km/h 16.7 km/h 49 % 0 mm
13:33 20 °C 8.9 °C 1017.8 hPa SW 16.7 km/h 16.7 km/h 49 % 0 mm
13:36 19.9 °C 8.9 °C 1017.8 hPa WSW 33.3 km/h 33.3 km/h 49 % 0 mm
13:37 19.8 °C 8.8 °C 1017.8 hPa WSW 33.3 km/h 33.3 km/h 49 % 0 mm
13:38 20 °C 8.9 °C 1017.8 hPa West 14.8 km/h 14.8 km/h 49 % 0 mm
13:43 20 °C 8.9 °C 1017.8 hPa WSW 18.5 km/h 18.5 km/h 49 % 0 mm
13:44 20 °C 8.9 °C 1017.8 hPa WSW 16.7 km/h 16.7 km/h 49 % 0 mm
13:48 19.9 °C 8.9 °C 1017.8 hPa WSW 22.2 km/h 22.2 km/h 49 % 0 mm
13:49 19.8 °C 8.8 °C 1017.8 hPa West 31.5 km/h 31.5 km/h 49 % 0 mm
13:50 19.8 °C 8.8 °C 1017.8 hPa WSW 31.5 km/h 31.5 km/h 49 % 0 mm
13:53 19.8 °C 8.8 °C 1017.8 hPa WSW 16.7 km/h 16.7 km/h 49 % 0 mm
13:54 19.8 °C 8.8 °C 1017.8 hPa West 14.8 km/h 14.8 km/h 49 % 0 mm
13:55 19.8 °C 8.8 °C 1017.8 hPa WSW 18.5 km/h 18.5 km/h 49 % 0 mm
14:00 19.9 °C 8.9 °C 1017.8 hPa SW 16.7 km/h 16.7 km/h 49 % 0 mm
14:01 19.9 °C 8.9 °C 1017.8 hPa West 20.9 km/h 20.9 km/h 49 % 0 mm
14:06 19.9 °C 8.9 °C 1017.8 hPa West 11.9 km/h 11.9 km/h 49 % 0 mm
14:07 19.9 °C 8.9 °C 1017.8 hPa West 11.9 km/h 11.9 km/h 49 % 0 mm
14:12 19.9 °C 8.6 °C 1017.8 hPa WSW 16.7 km/h 16.7 km/h 48 % 0 mm
14:14 19.9 °C 8.6 °C 1017.8 hPa West 11.1 km/h 11.1 km/h 48 % 0 mm
14:15 19.9 °C 8.6 °C 1017.8 hPa WSW 18.5 km/h 18.5 km/h 48 % 0 mm
14:20 20 °C 8.7 °C 1017.8 hPa West 14.5 km/h 20.9 km/h 48 % 0 mm
14:24 20 °C 8.3 °C 1017.8 hPa WNW 13 km/h 13 km/h 47 % 0 mm
14:26 20.2 °C 8.8 °C 1017.8 hPa WNW 14.8 km/h 14.8 km/h 48 % 0 mm
14:27 20.2 °C 8.8 °C 1017.8 hPa WSW 14.8 km/h 14.8 km/h 48 % 0 mm
14:32 20.3 °C 8.6 °C 1017.8 hPa WSW 13 km/h 13 km/h 47 % 0 mm
14:35 20.4 °C 8.7 °C 1017.8 hPa SW 16.9 km/h 16.9 km/h 47 % 0 mm
14:40 20.5 °C 8.8 °C 1017.8 hPa West 18 km/h 18 km/h 47 % 0 mm
14:41 20.5 °C 8.8 °C 1017.8 hPa West 18.5 km/h 18.5 km/h 47 % 0 mm
14:42 20.5 °C 8.8 °C 1017.8 hPa West 18.5 km/h 18.5 km/h 47 % 0 mm
14:46 20.6 °C 8.9 °C 1017.8 hPa West 13 km/h 13 km/h 47 % 0 mm
14:47 20.6 °C 8.9 °C 1017.8 hPa WNW 13 km/h 13 km/h 47 % 0 mm
14:52 20.5 °C 8.5 °C 1017.8 hPa WNW 9.3 km/h 9.3 km/h 46 % 0 mm
14:57 20.7 °C 8.7 °C 1017.8 hPa West 11.1 km/h 11.1 km/h 46 % 0 mm
15:00 20.8 °C 8.8 °C 1017.8 hPa West 16.1 km/h 16.1 km/h 46 % 0 mm
15:01 20.9 °C 8.8 °C 1017.8 hPa West 16.7 km/h 16.7 km/h 46 % 0 mm
15:07 20.9 °C 8.5 °C 1017.8 hPa West 24.1 km/h 24.1 km/h 45 % 0 mm
15:12 20.8 °C 8.4 °C 1017.8 hPa West 13 km/h 13 km/h 45 % 0 mm
15:13 20.8 °C 8.1 °C 1017.8 hPa WSW 16.7 km/h 16.7 km/h 44 % 0 mm
15:15 20.8 °C 8.1 °C 1017.8 hPa WNW 14.8 km/h 14.8 km/h 44 % 0 mm
15:16 20.9 °C 8.2 °C 1017.8 hPa WSW 13 km/h 13 km/h 44 % 0 mm
15:21 20.8 °C 8.1 °C 1017.8 hPa WSW 24.1 km/h 24.1 km/h 44 % 0 mm
15:22 20.8 °C 8.1 °C 1017.8 hPa WSW 24.1 km/h 24.1 km/h 44 % 0 mm
15:25 20.8 °C 8.1 °C 1017.8 hPa WNW 9.3 km/h 10 km/h 44 % 0 mm
15:28 20.8 °C 8.1 °C 1017.8 hPa WSW 13 km/h 13 km/h 44 % 0 mm
15:35 20.7 °C 8 °C 1017.8 hPa West 18.5 km/h 18.5 km/h 44 % 0 mm
15:38 20.6 °C 7.6 °C 1017.8 hPa WNW 24.1 km/h 24.1 km/h 43 % 0 mm
15:43 20.6 °C 7.9 °C 1017.8 hPa West 11.1 km/h 11.1 km/h 44 % 0 mm
15:45 20.6 °C 7.9 °C 1017.8 hPa WNW 14.8 km/h 14.8 km/h 44 % 0 mm
15:49 20.5 °C 7.8 °C 1017.8 hPa West 9.5 km/h 9.5 km/h 44 % 0 mm
15:50 20.5 °C 7.8 °C 1017.8 hPa SW 9.5 km/h 9.5 km/h 44 % 0 mm
15:51 20.6 °C 7.9 °C 1017.8 hPa NW 20.1 km/h 20.1 km/h 44 % 0 mm
15:56 20.5 °C 7.8 °C 1017.8 hPa West 9.3 km/h 9.7 km/h 44 % 0 mm
16:05 20.4 °C 7.4 °C 1017.8 hPa ENE 20.4 km/h 20.4 km/h 43 % 0 mm
16:07 20.3 °C 7.3 °C 1017.8 hPa WSW 14 km/h 14 km/h 43 % 0 mm
16:12 20 °C 7.4 °C 1017.8 hPa NW 11.1 km/h 11.1 km/h 44 % 0 mm
16:14 20 °C 7.4 °C 1017.8 hPa West 5.8 km/h 5.8 km/h 44 % 0 mm
16:18 19.9 °C 7.3 °C 1017.8 hPa West 9.3 km/h 9.3 km/h 44 % 0 mm
16:20 19.8 °C 7.2 °C 1017.8 hPa West 9.3 km/h 9.3 km/h 44 % 0 mm
16:25 19.7 °C 7.1 °C 1017.8 hPa WSW 10.3 km/h 10.3 km/h 44 % 0 mm
16:26 19.7 °C 7.1 °C 1017.8 hPa WNW 9.3 km/h 9.3 km/h 44 % 0 mm
16:27 19.8 °C 7.2 °C 1017.8 hPa WSW 13 km/h 13 km/h 44 % 0 mm
16:32 19.9 °C 7.3 °C 1017.8 hPa West 11.1 km/h 11.1 km/h 44 % 0 mm
16:37 19.9 °C 7.3 °C 1017.8 hPa WSW 11.9 km/h 11.9 km/h 44 % 0 mm
16:42 19.9 °C 7.3 °C 1017.8 hPa SW 11.1 km/h 11.1 km/h 44 % 0 mm
16:47 19.8 °C 7.2 °C 1017.8 hPa WNW 7.4 km/h 7.4 km/h 44 % 0 mm
16:49 19.8 °C 7.2 °C 1017.8 hPa SSW 16.7 km/h 16.7 km/h 44 % 0 mm
16:52 19.7 °C 7.1 °C 1017.8 hPa West 7.4 km/h 7.4 km/h 44 % 0 mm
16:53 19.6 °C 7 °C 1017.8 hPa WSW 14 km/h 14 km/h 44 % 0 mm
16:54 19.6 °C 7 °C 1017.8 hPa West 14.8 km/h 14.8 km/h 44 % 0 mm
16:59 19.3 °C 6.7 °C 1017.8 hPa SW 12.2 km/h 12.2 km/h 44 % 0 mm
17:01 19.2 °C 6.7 °C 1017.8 hPa West 13 km/h 13 km/h 44 % 0 mm
17:05 19.1 °C 6.6 °C 1017.8 hPa WSW 6.1 km/h 6.1 km/h 44 % 0 mm
17:08 19.1 °C 6.9 °C 1017.8 hPa SW 11.1 km/h 11.1 km/h 45 % 0 mm
17:13 19 °C 6.8 °C 1017.8 hPa WSW 9.7 km/h 9.7 km/h 45 % 0 mm
17:18 18.8 °C 6.9 °C 1017.8 hPa West 5.6 km/h 5.6 km/h 46 % 0 mm
17:22 18.7 °C 6.8 °C 1017.8 hPa WSW 5.6 km/h 5.6 km/h 46 % 0 mm
17:23 18.7 °C 6.8 °C 1017.8 hPa NW 3.7 km/h 3.7 km/h 46 % 0 mm
17:27 18.6 °C 6.7 °C 1017.8 hPa West 17.2 km/h 17.2 km/h 46 % 0 mm
17:30 18.4 °C 6.6 °C 1017.8 hPa WSW 11.1 km/h 11.1 km/h 46 % 0 mm
17:31 18.4 °C 6.6 °C 1017.8 hPa WSW 11.1 km/h 11.1 km/h 46 % 0 mm
17:32 18.4 °C 6.6 °C 1017.8 hPa WSW 7.9 km/h 7.9 km/h 46 % 0 mm
17:37 18.3 °C 6.5 °C 1017.8 hPa WSW 3.7 km/h 3.7 km/h 46 % 0 mm
17:38 18.2 °C 6.4 °C 1017.8 hPa West 3.7 km/h 3.7 km/h 46 % 0 mm
17:43 18.1 °C 6.3 °C 1017.8 hPa NNW 4.2 km/h 4.2 km/h 46 % 0 mm
17:45 18 °C 6.2 °C 1017.8 hPa West 4.2 km/h 4.2 km/h 46 % 0 mm
17:46 18 °C 6.2 °C 1017.8 hPa WNW 7.4 km/h 7.4 km/h 46 % 0 mm
17:51 18 °C 6.5 °C 1017.8 hPa NW 7.4 km/h 7.4 km/h 47 % 0 mm
17:53 18 °C 6.5 °C 1017.8 hPa NW 9.3 km/h 9.3 km/h 47 % 0 mm
17:55 17.9 °C 6.4 °C 1017.8 hPa West 3.7 km/h 3.7 km/h 47 % 0 mm
17:57 17.8 °C 6.3 °C 1017.8 hPa WNW 9.3 km/h 9.3 km/h 47 % 0 mm
17:59 17.8 °C 6.3 °C 1017.8 hPa NNW 5.6 km/h 5.6 km/h 47 % 0 mm
18:04 17.7 °C 6.2 °C 1017.8 hPa WNW 3.7 km/h 3.7 km/h 47 % 0 mm
18:05 17.7 °C 6.2 °C 1017.8 hPa WNW 7.4 km/h 7.4 km/h 47 % 0 mm
18:10 17.6 °C 6.2 °C 1017.8 hPa WSW 9.3 km/h 9.3 km/h 47 % 0 mm
18:11 17.6 °C 6.2 °C 1017.8 hPa WSW 9.3 km/h 9.3 km/h 47 % 0 mm
18:16 17.6 °C 6.2 °C 1017.8 hPa NW 5.6 km/h 5.6 km/h 47 % 0 mm
18:18 17.5 °C 6.1 °C 1017.8 hPa WSW 5 km/h 5 km/h 47 % 0 mm
18:20 14.1 °C 4.1 °C 1017.8 hPa WSW 4.8 km/h 6.4 km/h 51 % 0 mm
18:21 17.6 °C 6.2 °C 1017.8 hPa SW 6.1 km/h 7.9 km/h 47 % 0 mm
18:22 17.6 °C 6.2 °C 1017.8 hPa WSW 16.7 km/h 16.7 km/h 47 % 0 mm
18:27 17.5 °C 6.1 °C 1017.8 hPa WSW 3.7 km/h 3.7 km/h 47 % 0 mm
18:28 17.5 °C 6.1 °C 1017.8 hPa NW 4.7 km/h 4.7 km/h 47 % 0 mm
18:32 17.4 °C 5.9 °C 1017.8 hPa NW 1.9 km/h   47 % 0 mm
18:36 17.2 °C 6.1 °C 1017.8 hPa NNW 7.4 km/h 7.4 km/h 48 % 0 mm
18:40 13.5 °C 3.6 °C 1016.8 hPa WSW 3.2 km/h 4.8 km/h 51 % 0 mm
18:41 17.2 °C 6.1 °C 1017.8 hPa SE 5.6 km/h 5.6 km/h 48 % 0 mm
18:46 17 °C 5.9 °C 1017.8 hPa SW 5.6 km/h 5.6 km/h 48 % 0 mm
18:50 17.1 °C 6 °C 1017.8 hPa ESE 13 km/h 13 km/h 48 % 0 mm
18:55 17.1 °C 6 °C 1018.8 hPa ESE 6.1 km/h 6.1 km/h 48 % 0 mm
18:59 17.1 °C 6 °C 1018.8 hPa ESE 9.3 km/h 9.3 km/h 48 % 0 mm
19:00 13.3 °C 3.4 °C 1016.8 hPa West 4.8 km/h 6.4 km/h 51 % 0 mm
19:03 16.9 °C 6.1 °C 1018.8 hPa SE 3.7 km/h 3.7 km/h 49 % 0 mm
19:08 16.7 °C 5.9 °C 1017.8 hPa Calm     49 % 0 mm
19:10 16.7 °C 6.2 °C 1017.8 hPa NNE 3.7 km/h 3.9 km/h 50 % 0 mm
19:16 16.6 °C 6.1 °C 1017.8 hPa ESE 7.2 km/h 7.2 km/h 50 % 0 mm
19:20 13.3 °C 3.4 °C 1014.8 hPa WSW 3.2 km/h 4.8 km/h 51 % 0 mm
19:21 16.8 °C 6.3 °C 1018.8 hPa East 3.7 km/h 3.7 km/h 50 % 0 mm
19:23 16.8 °C 6.3 °C 1018.8 hPa SSE 5.6 km/h 5.6 km/h 50 % 0 mm
19:28 16.6 °C 6.1 °C 1018.8 hPa ESE 5 km/h 5 km/h 50 % 0 mm
19:30 16.6 °C 6.1 °C 1018.8 hPa SSE 5.6 km/h 5.6 km/h 50 % 0 mm
19:35 16.8 °C 6.3 °C 1018.8 hPa West 6.4 km/h 6.4 km/h 50 % 0 mm
19:38 16.8 °C 6.3 °C 1018.8 hPa South 7.4 km/h 7.4 km/h 50 % 0 mm
19:43 16.6 °C 6.1 °C 1018.8 hPa SE 7.4 km/h 7.4 km/h 50 % 0 mm
19:48 16.5 °C 6.1 °C 1018.8 hPa SW 1.9 km/h 1.9 km/h 50 % 0 mm
19:50 13 °C 3.4 °C 1015.8 hPa WSW 1.6 km/h 8 km/h 52 % 0 mm
19:53 16.3 °C 5.8 °C 1018.8 hPa SW 3.7 km/h 3.7 km/h 50 % 0 mm
19:59 16.3 °C 6.1 °C 1018.8 hPa SE 5.6 km/h 5.6 km/h 51 % 0 mm
20:00 16.3 °C 6.1 °C 1018.8 hPa SW 3.9 km/h 3.9 km/h 51 % 0 mm
20:01 16.3 °C 6.1 °C 1018.8 hPa SSW 3.7 km/h 4.2 km/h 51 % 0 mm
20:06 16 °C 5.8 °C 1018.8 hPa ESE 5.8 km/h 5.8 km/h 51 % 0 mm
20:10 16.1 °C 5.9 °C 1018.8 hPa West 3.7 km/h 3.7 km/h 51 % 0 mm
20:15 16.1 °C 5.9 °C 1018.8 hPa WNW 5.6 km/h 5.6 km/h 51 % 0 mm
20:18 16.1 °C 5.9 °C 1018.8 hPa WSW 3.7 km/h 3.7 km/h 51 % 0 mm
20:19 16 °C 5.8 °C 1018.8 hPa SW 3.7 km/h 3.7 km/h 51 % 0 mm
20:23 15.8 °C 5.7 °C 1018.8 hPa SE 3.2 km/h   51 % 0 mm
20:24 15.7 °C 5.6 °C 1018.8 hPa SE 3.7 km/h 3.7 km/h 51 % 0 mm
20:29 16 °C 5.8 °C 1018.8 hPa SW 3.9 km/h 3.9 km/h 51 % 0 mm
20:33 15.8 °C 5.7 °C 1018.8 hPa WSW 3.7 km/h   51 % 0 mm
20:35 15.9 °C 5.8 °C 1018.8 hPa ESE 3.7 km/h 3.7 km/h 51 % 0 mm
20:40 16.1 °C 5.9 °C 1017.8 hPa SW 2.3 km/h   51 % 0 mm
20:43 15.8 °C 5.7 °C 1017.8 hPa SW 3.7 km/h 3.7 km/h 51 % 0 mm
20:44 15.7 °C 5.6 °C 1017.8 hPa SW 3.7 km/h 3.7 km/h 51 % 0 mm
20:49 15.5 °C 5.4 °C 1017.8 hPa WNW 3.9 km/h 3.9 km/h 51 % 0 mm
20:50 15.5 °C 5.4 °C 1017.8 hPa WNW 3.7 km/h 3.9 km/h 51 % 0 mm
20:56 15.5 °C 5.4 °C 1017.8 hPa West 3.7 km/h 3.7 km/h 51 % 0 mm
21:00 11.6 °C 2.3 °C 1014.8 hPa SW 3.2 km/h 4.8 km/h 53 % 0 mm
21:02 15.3 °C 5.5 °C 1017.8 hPa WNW 3.7 km/h 3.7 km/h 52 % 0 mm
21:06 15.2 °C 5.4 °C 1017.8 hPa NNW 5.6 km/h 5.6 km/h 52 % 0 mm
21:10 11.6 °C 2.3 °C 1014.8 hPa SW 1.6 km/h 4.8 km/h 53 % 0 mm
21:16 15.3 °C 5.5 °C 1017.8 hPa West 5.6 km/h 5.6 km/h 52 % 0 mm
21:17 15.3 °C 5.5 °C 1017.8 hPa WSW 5.6 km/h 5.6 km/h 52 % 0 mm
21:20 11.4 °C 2.2 °C 1013.8 hPa SW 3.2 km/h 6.4 km/h 53 % 0 mm
21:25 15.1 °C 5.3 °C 1017.8 hPa WNW 3.9 km/h 3.9 km/h 52 % 0 mm
21:27 15.1 °C 5.3 °C 1017.8 hPa WNW 4.7 km/h 4.7 km/h 52 % 0 mm
21:32 15.2 °C 5.4 °C 1017.8 hPa WNW 3.7 km/h 3.7 km/h 52 % 0 mm
21:33 15.2 °C 5.4 °C 1017.8 hPa NW 3.7 km/h 3.7 km/h 52 % 0 mm
21:38 15.2 °C 5.4 °C 1017.8 hPa WNW 5.6 km/h 5.6 km/h 52 % 0 mm
21:40 11.2 °C 2.2 °C 1013.8 hPa Calm   3.2 km/h 54 % 0 mm
21:43 15.3 °C 5.5 °C 1017.8 hPa West 3.9 km/h 3.9 km/h 52 % 0 mm
21:47 15.4 °C 5.6 °C 1017.8 hPa WNW 5.6 km/h 5.6 km/h 52 % 0 mm
21:50 11.2 °C 2.2 °C 1014.8 hPa WSW 1.6 km/h 3.2 km/h 54 % 0 mm
21:52 15.3 °C 5.8 °C 1017.8 hPa WSW 8.7 km/h 8.7 km/h 53 % 0 mm
21:54 15.3 °C 5.8 °C 1017.8 hPa WSW 5 km/h 5 km/h 53 % 0 mm
21:55 15.4 °C 5.9 °C 1017.8 hPa NW 9.3 km/h 9.3 km/h 53 % 0 mm
21:59 15.3 °C 5.8 °C 1017.8 hPa West 3.7 km/h 3.7 km/h 53 % 0 mm
22:00 11.5 °C 2.5 °C 1014.8 hPa WSW 4.8 km/h 6.4 km/h 54 % 0 mm
22:06 15.4 °C 5.6 °C 1018.8 hPa WNW 3.9 km/h 3.9 km/h 52 % 0 mm
22:09 15.4 °C 5.6 °C 1018.8 hPa NW 6.1 km/h 6.1 km/h 52 % 0 mm
22:10 11.7 °C 2.7 °C 1013.8 hPa WSW 3.2 km/h 6.4 km/h 54 % 0 mm
22:14 15.4 °C 5.6 °C 1018.8 hPa West 8.7 km/h 8.7 km/h 52 % 0 mm
22:17 15.4 °C 5.6 °C 1018.8 hPa WSW 7.4 km/h 7.4 km/h 52 % 0 mm
22:20 11.9 °C 2.9 °C 1013.8 hPa WSW 4.8 km/h 9.7 km/h 54 % 0 mm
22:26 15.2 °C 5.4 °C 1017.8 hPa WSW 5.6 km/h 5.6 km/h 52 % 0 mm
22:28 15.2 °C 5.4 °C 1017.8 hPa WSW 7.4 km/h 7.4 km/h 52 % 0 mm
22:30 15.1 °C 5.3 °C 1017.8 hPa NW 5.6 km/h 5.6 km/h 52 % 0 mm
22:32 15.1 °C 5.3 °C 1017.8 hPa WNW 9.3 km/h 9.3 km/h 52 % 0 mm
22:33 15.1 °C 5.3 °C 1017.8 hPa NW 9.3 km/h 9.3 km/h 52 % 0 mm
22:34 15.1 °C 5.3 °C 1017.8 hPa West 7.4 km/h 7.4 km/h 52 % 0 mm
22:40 11.2 °C 2.2 °C 1013.8 hPa SW 4.8 km/h 6.4 km/h 54 % 0 mm
22:43 15 °C 5.2 °C 1017.8 hPa West 7.4 km/h 7.4 km/h 52 % 0 mm
22:44 15 °C 4.9 °C 1017.8 hPa West 9.5 km/h 9.5 km/h 51 % 0 mm
22:45 15 °C 4.9 °C 1017.8 hPa WSW 9.3 km/h 9.3 km/h 51 % 0 mm
22:46 15 °C 4.9 °C 1017.8 hPa West 11.1 km/h 11.1 km/h 51 % 0 mm
22:47 15 °C 4.9 °C 1017.8 hPa West 11.1 km/h 11.1 km/h 51 % 0 mm
22:48 15 °C 4.9 °C 1017.8 hPa West 9 km/h 9 km/h 51 % 0 mm
22:49 15 °C 4.9 °C 1017.8 hPa ENE 9.3 km/h 9.3 km/h 51 % 0 mm
22:50 11.1 °C 2.4 °C 1012.8 hPa WSW 4.8 km/h 6.4 km/h 55 % 0 mm
22:54 15 °C 4.9 °C 1017.8 hPa WNW 9.3 km/h 9.3 km/h 51 % 0 mm
22:55 15 °C 4.9 °C 1017.8 hPa WSW 9.3 km/h 9.3 km/h 51 % 0 mm
23:00 15 °C 4.9 °C 1017.8 hPa West 8 km/h 12.9 km/h 51 % 0 mm
23:06 14.8 °C 4.8 °C 1017.8 hPa WSW 7.4 km/h 7.4 km/h 51 % 0 mm
23:11 14.8 °C 4.8 °C 1017.8 hPa West 7.4 km/h 7.4 km/h 51 % 0 mm
23:16 14.7 °C 4.7 °C 1017.8 hPa WSW 9.3 km/h 9.3 km/h 51 % 0 mm
23:20 11.1 °C 2.4 °C 1013.8 hPa SW 4.8 km/h 4.8 km/h 55 % 0 mm
23:21 14.7 °C 4.7 °C 1017.8 hPa WSW 9.3 km/h 9.3 km/h 51 % 0 mm
23:24 14.6 °C 4.6 °C 1017.8 hPa West 7.4 km/h 7.4 km/h 51 % 0 mm
23:28 14.6 °C 4.6 °C 1017.8 hPa West 16.7 km/h 16.7 km/h 51 % 0 mm
23:30 11.1 °C 2.7 °C 1013.8 hPa SW 4.8 km/h 6.4 km/h 56 % 0 mm
23:34 14.6 °C 4.6 °C 1017.8 hPa WNW 13 km/h 13 km/h 51 % 0 mm
23:35 14.5 °C 4.5 °C 1017.8 hPa NNW 9.3 km/h 9.3 km/h 51 % 0 mm
23:40 14.4 °C 4.4 °C 1017.8 hPa West 9.3 km/h 9.3 km/h 51 % 0 mm
23:41 14.4 °C 4.4 °C 1017.8 hPa WSW 9.3 km/h 9.3 km/h 51 % 0 mm
23:46 14.4 °C 4.4 °C 1017.8 hPa West 16.7 km/h 16.7 km/h 51 % 0 mm
23:50 10.6 °C 2.2 °C 1012.8 hPa WSW 4.8 km/h 4.8 km/h 56 % 0 mm
23:51 14.4 °C 4.4 °C 1017.8 hPa WSW 14.8 km/h 14.8 km/h 51 % 0 mm
23:55 14.4 °C 4.4 °C 1017.8 hPa West 5.6 km/h 5.6 km/h 51 % 0 mm
Meteo Sesrovires
Elogis d' Weather Underground - 1.75 mb

Guio original per  Jim McMurry - jmcmurry@mwt.net Adaptat per a la plantilla per  Wim van der Kuil - Leuven-Template.eu

Trobareu la nostra informacio del temps tambe a:

Weather Underground

AWEKAS